05TN weather

CLOSED Thurmond Glenn Field
Covington, Tennessee, United States

Public forecast

Using degrees Fahrenheit for public forecast. Weather courtesy of forecast.io.

Closest aviation weather report (METAR) to Thurmond Glenn Field

Closest report is Millington-Memphis Airport, 19.6 nm (36.4 km) SW. Retrieved 2020/05/30 16:50 UTC (50 minutes ago):

KNQA 301650Z 36009KT 10SM CLR 25/12 A3016

Closest aviation forecast (TAF) to Thurmond Glenn Field

Closest forecast is McKellar-Sipes Regional Airport, 31.2 nm (57.8 km) E. Retrieved 2020/05/30 12:36 UTC (5 hours ago):

TAF KMKL 301134Z 3012/3112 01003KT P6SM SKC FM301500 35008KT P6SM SKC FM310100 36005KT P6SM SKC